sensor_id;sensor_type;location;lat;lon;timestamp;pressure;altitude;pressure_sealevel;temperature;humidity
18697;BME280;22617;43.690;27.956;2024-01-30T00:01:19;100981.50;;;0.80;100.00
18697;BME280;22617;43.690;27.956;2024-01-30T00:06:23;100977.72;;;0.75;100.00
18697;BME280;22617;43.690;27.956;2024-01-30T00:11:26;100990.84;;;0.80;100.00
18697;BME280;22617;43.690;27.956;2024-01-30T00:16:32;100982.06;;;0.76;100.00
18697;BME280;22617;43.690;27.956;2024-01-30T00:21:36;100982.25;;;0.79;100.00
18697;BME280;22617;43.690;27.956;2024-01-30T00:26:40;100982.31;;;0.68;100.00
18697;BME280;22617;43.690;27.956;2024-01-30T00:31:45;100980.66;;;0.68;100.00
18697;BME280;22617;43.690;27.956;2024-01-30T00:36:49;100981.25;;;0.64;100.00
18697;BME280;22617;43.690;27.956;2024-01-30T00:41:52;100987.84;;;0.61;100.00
18697;BME280;22617;43.690;27.956;2024-01-30T00:46:57;100981.13;;;0.63;100.00
18697;BME280;22617;43.690;27.956;2024-01-30T00:52:01;100984.59;;;0.63;100.00
18697;BME280;22617;43.690;27.956;2024-01-30T00:57:04;100974.91;;;0.59;100.00
18697;BME280;22617;43.690;27.956;2024-01-30T01:02:09;100968.88;;;0.59;100.00
18697;BME280;22617;43.690;27.956;2024-01-30T01:07:13;100977.69;;;0.62;100.00
18697;BME280;22617;43.690;27.956;2024-01-30T01:12:16;100969.59;;;0.56;100.00
18697;BME280;22617;43.690;27.956;2024-01-30T01:17:21;100966.44;;;0.73;100.00
18697;BME280;22617;43.690;27.956;2024-01-30T01:22:25;100971.44;;;0.59;100.00
18697;BME280;22617;43.690;27.956;2024-01-30T01:27:28;100970.50;;;0.70;100.00
18697;BME280;22617;43.690;27.956;2024-01-30T01:32:33;100965.19;;;0.67;100.00
18697;BME280;22617;43.690;27.956;2024-01-30T01:37:37;100964.16;;;0.65;100.00
18697;BME280;22617;43.690;27.956;2024-01-30T01:42:40;100970.94;;;0.51;100.00
18697;BME280;22617;43.690;27.956;2024-01-30T01:47:46;100953.97;;;0.53;100.00
18697;BME280;22617;43.690;27.956;2024-01-30T01:52:51;100953.66;;;0.49;100.00
18697;BME280;22617;43.690;27.956;2024-01-30T01:57:55;100957.22;;;0.51;100.00
18697;BME280;22617;43.690;27.956;2024-01-30T02:03:00;100939.75;;;0.45;100.00
18697;BME280;22617;43.690;27.956;2024-01-30T02:08:05;100944.25;;;0.36;100.00
18697;BME280;22617;43.690;27.956;2024-01-30T02:13:09;100947.25;;;0.42;100.00
18697;BME280;22617;43.690;27.956;2024-01-30T02:18:14;100942.31;;;0.45;100.00
18697;BME280;22617;43.690;27.956;2024-01-30T02:23:39;100933.22;;;0.37;100.00
18697;BME280;22617;43.690;27.956;2024-01-30T02:28:44;100929.50;;;0.45;100.00
18697;BME280;22617;43.690;27.956;2024-01-30T02:33:47;100940.75;;;0.47;100.00
18697;BME280;22617;43.690;27.956;2024-01-30T02:38:53;100942.09;;;0.67;100.00
18697;BME280;22617;43.690;27.956;2024-01-30T02:43:57;100955.38;;;0.61;100.00
18697;BME280;22617;43.690;27.956;2024-01-30T02:49:00;100948.78;;;0.65;100.00
18697;BME280;22617;43.690;27.956;2024-01-30T02:54:05;100955.00;;;0.68;100.00
18697;BME280;22617;43.690;27.956;2024-01-30T02:59:09;100962.88;;;0.58;100.00
18697;BME280;22617;43.690;27.956;2024-01-30T03:04:12;100963.38;;;0.53;100.00
18697;BME280;22617;43.690;27.956;2024-01-30T03:09:17;100968.81;;;0.57;100.00
18697;BME280;22617;43.690;27.956;2024-01-30T03:14:21;100964.22;;;0.53;100.00
18697;BME280;22617;43.690;27.956;2024-01-30T03:19:24;100960.38;;;0.47;100.00
18697;BME280;22617;43.690;27.956;2024-01-30T03:24:29;100958.59;;;0.46;100.00
18697;BME280;22617;43.690;27.956;2024-01-30T03:29:33;100967.19;;;0.46;100.00
18697;BME280;22617;43.690;27.956;2024-01-30T03:34:36;100954.16;;;0.43;100.00
18697;BME280;22617;43.690;27.956;2024-01-30T03:39:41;100959.69;;;0.49;100.00
18697;BME280;22617;43.690;27.956;2024-01-30T03:44:45;100968.75;;;0.44;100.00
18697;BME280;22617;43.690;27.956;2024-01-30T03:49:48;100969.56;;;0.43;100.00
18697;BME280;22617;43.690;27.956;2024-01-30T03:54:53;100966.25;;;0.57;100.00
18697;BME280;22617;43.690;27.956;2024-01-30T03:59:56;100961.88;;;0.43;100.00
18697;BME280;22617;43.690;27.956;2024-01-30T04:05:13;100961.63;;;0.40;100.00
18697;BME280;22617;43.690;27.956;2024-01-30T04:10:18;100965.56;;;0.35;100.00
18697;BME280;22617;43.690;27.956;2024-01-30T04:15:22;100967.22;;;0.34;100.00
18697;BME280;22617;43.690;27.956;2024-01-30T04:20:25;100976.03;;;0.38;100.00
18697;BME280;22617;43.690;27.956;2024-01-30T04:25:30;100975.03;;;0.36;100.00
18697;BME280;22617;43.690;27.956;2024-01-30T04:30:34;100969.56;;;0.43;100.00
18697;BME280;22617;43.690;27.956;2024-01-30T04:35:37;100959.97;;;0.40;100.00
18697;BME280;22617;43.690;27.956;2024-01-30T04:40:42;100960.28;;;0.45;100.00
18697;BME280;22617;43.690;27.956;2024-01-30T04:45:46;100968.56;;;0.41;100.00
18697;BME280;22617;43.690;27.956;2024-01-30T04:50:49;100970.69;;;0.35;100.00
18697;BME280;22617;43.690;27.956;2024-01-30T04:55:54;100971.31;;;0.44;100.00
18697;BME280;22617;43.690;27.956;2024-01-30T05:00:57;100979.28;;;0.35;100.00
18697;BME280;22617;43.690;27.956;2024-01-30T05:06:01;100973.84;;;0.31;100.00
18697;BME280;22617;43.690;27.956;2024-01-30T05:11:06;100984.94;;;0.43;100.00
18697;BME280;22617;43.690;27.956;2024-01-30T05:16:10;100986.13;;;0.48;100.00
18697;BME280;22617;43.690;27.956;2024-01-30T05:21:14;100987.31;;;0.53;100.00
18697;BME280;22617;43.690;27.956;2024-01-30T05:26:18;100984.53;;;0.37;100.00
18697;BME280;22617;43.690;27.956;2024-01-30T05:31:22;100973.63;;;0.28;100.00
18697;BME280;22617;43.690;27.956;2024-01-30T05:36:27;100989.06;;;0.41;100.00
18697;BME280;22617;43.690;27.956;2024-01-30T05:41:32;100987.16;;;0.38;100.00
18697;BME280;22617;43.690;27.956;2024-01-30T05:46:35;100995.88;;;0.40;100.00
18697;BME280;22617;43.690;27.956;2024-01-30T05:51:39;101000.81;;;0.37;100.00
18697;BME280;22617;43.690;27.956;2024-01-30T05:56:44;101007.22;;;0.44;100.00
18697;BME280;22617;43.690;27.956;2024-01-30T06:01:48;101009.16;;;0.35;100.00
18697;BME280;22617;43.690;27.956;2024-01-30T06:06:51;101014.75;;;0.54;100.00
18697;BME280;22617;43.690;27.956;2024-01-30T06:11:56;101007.84;;;0.53;100.00
18697;BME280;22617;43.690;27.956;2024-01-30T06:17:00;101014.25;;;0.47;100.00
18697;BME280;22617;43.690;27.956;2024-01-30T06:22:03;101016.69;;;0.45;100.00
18697;BME280;22617;43.690;27.956;2024-01-30T06:27:08;101020.47;;;0.50;100.00
18697;BME280;22617;43.690;27.956;2024-01-30T06:32:12;101028.31;;;0.65;100.00
18697;BME280;22617;43.690;27.956;2024-01-30T06:37:15;101028.66;;;0.58;100.00
18697;BME280;22617;43.690;27.956;2024-01-30T06:42:20;101034.22;;;0.64;100.00
18697;BME280;22617;43.690;27.956;2024-01-30T06:47:23;101043.44;;;0.73;100.00
18697;BME280;22617;43.690;27.956;2024-01-30T06:52:27;101048.03;;;0.91;100.00
18697;BME280;22617;43.690;27.956;2024-01-30T06:57:32;101047.34;;;0.93;100.00
18697;BME280;22617;43.690;27.956;2024-01-30T07:02:36;101050.50;;;0.89;100.00
18697;BME280;22617;43.690;27.956;2024-01-30T07:07:39;101054.47;;;0.97;100.00
18697;BME280;22617;43.690;27.956;2024-01-30T07:12:44;101054.59;;;1.12;100.00
18697;BME280;22617;43.690;27.956;2024-01-30T07:17:48;101052.94;;;0.87;100.00
18697;BME280;22617;43.690;27.956;2024-01-30T07:22:51;101052.50;;;1.06;100.00
18697;BME280;22617;43.690;27.956;2024-01-30T07:27:56;101041.47;;;1.20;100.00
18697;BME280;22617;43.690;27.956;2024-01-30T07:33:00;101049.75;;;1.16;100.00
18697;BME280;22617;43.690;27.956;2024-01-30T07:38:03;101061.69;;;1.16;100.00
18697;BME280;22617;43.690;27.956;2024-01-30T07:43:08;101054.59;;;1.25;100.00
18697;BME280;22617;43.690;27.956;2024-01-30T07:48:12;101058.00;;;1.37;100.00
18697;BME280;22617;43.690;27.956;2024-01-30T07:53:16;101063.44;;;1.28;100.00
18697;BME280;22617;43.690;27.956;2024-01-30T07:58:21;101055.31;;;1.22;100.00
18697;BME280;22617;43.690;27.956;2024-01-30T08:03:25;101056.38;;;1.26;100.00
18697;BME280;22617;43.690;27.956;2024-01-30T08:08:29;101054.59;;;1.12;100.00
18697;BME280;22617;43.690;27.956;2024-01-30T08:13:34;101061.53;;;1.26;100.00
18697;BME280;22617;43.690;27.956;2024-01-30T08:18:37;101049.88;;;1.18;100.00
18697;BME280;22617;43.690;27.956;2024-01-30T08:23:42;101048.00;;;1.55;100.00
18697;BME280;22617;43.690;27.956;2024-01-30T08:28:47;101049.09;;;1.58;100.00
18697;BME280;22617;43.690;27.956;2024-01-30T08:33:50;101048.81;;;1.67;100.00
18697;BME280;22617;43.690;27.956;2024-01-30T08:38:54;101051.06;;;1.75;100.00
18697;BME280;22617;43.690;27.956;2024-01-30T08:44:05;101063.69;;;1.99;100.00
18697;BME280;22617;43.690;27.956;2024-01-30T08:49:08;101064.34;;;2.23;100.00
18697;BME280;22617;43.690;27.956;2024-01-30T08:54:12;101064.44;;;2.24;100.00
18697;BME280;22617;43.690;27.956;2024-01-30T08:59:17;101056.22;;;2.57;100.00
18697;BME280;22617;43.690;27.956;2024-01-30T09:04:21;101055.06;;;3.24;100.00
18697;BME280;22617;43.690;27.956;2024-01-30T09:09:27;101052.50;;;3.39;100.00
18697;BME280;22617;43.690;27.956;2024-01-30T09:14:32;101052.44;;;3.68;100.00
18697;BME280;22617;43.690;27.956;2024-01-30T09:19:36;101050.25;;;3.90;100.00
18697;BME280;22617;43.690;27.956;2024-01-30T09:24:40;101059.06;;;3.48;100.00
18697;BME280;22617;43.690;27.956;2024-01-30T09:29:45;101062.59;;;3.50;100.00
18697;BME280;22617;43.690;27.956;2024-01-30T09:34:48;101047.53;;;4.04;100.00
18697;BME280;22617;43.690;27.956;2024-01-30T09:39:52;101032.59;;;4.29;100.00
18697;BME280;22617;43.690;27.956;2024-01-30T09:44:57;101034.28;;;4.28;100.00
18697;BME280;22617;43.690;27.956;2024-01-30T09:50:01;101035.56;;;3.73;100.00
18697;BME280;22617;43.690;27.956;2024-01-30T09:55:09;101032.19;;;4.21;100.00
18697;BME280;22617;43.690;27.956;2024-01-30T10:00:14;101020.84;;;4.03;100.00
18697;BME280;22617;43.690;27.956;2024-01-30T10:05:19;101016.88;;;3.93;100.00
18697;BME280;22617;43.690;27.956;2024-01-30T10:10:22;101014.78;;;4.50;100.00
18697;BME280;22617;43.690;27.956;2024-01-30T10:15:28;101013.16;;;5.36;100.00
18697;BME280;22617;43.690;27.956;2024-01-30T10:20:32;101002.88;;;5.55;100.00
18697;BME280;22617;43.690;27.956;2024-01-30T10:25:35;100996.06;;;5.39;100.00
18697;BME280;22617;43.690;27.956;2024-01-30T10:30:40;100998.78;;;5.24;100.00
18697;BME280;22617;43.690;27.956;2024-01-30T10:35:45;100994.59;;;4.59;100.00
18697;BME280;22617;43.690;27.956;2024-01-30T10:40:50;100997.66;;;4.52;100.00
18697;BME280;22617;43.690;27.956;2024-01-30T10:45:57;100997.03;;;4.39;100.00
18697;BME280;22617;43.690;27.956;2024-01-30T10:51:05;100998.13;;;4.28;100.00
18697;BME280;22617;43.690;27.956;2024-01-30T10:56:10;100994.25;;;4.36;100.00
18697;BME280;22617;43.690;27.956;2024-01-30T11:01:16;100978.22;;;4.58;100.00
18697;BME280;22617;43.690;27.956;2024-01-30T11:06:22;100977.41;;;4.43;100.00
18697;BME280;22617;43.690;27.956;2024-01-30T11:11:26;100974.75;;;4.25;100.00
18697;BME280;22617;43.690;27.956;2024-01-30T11:16:32;100960.53;;;4.17;100.00
18697;BME280;22617;43.690;27.956;2024-01-30T11:21:41;100964.25;;;3.90;100.00
18697;BME280;22617;43.690;27.956;2024-01-30T11:26:44;100959.94;;;4.71;100.00
18697;BME280;22617;43.690;27.956;2024-01-30T11:31:56;100956.84;;;4.28;100.00
18697;BME280;22617;43.690;27.956;2024-01-30T11:37:03;100954.09;;;4.42;100.00
18697;BME280;22617;43.690;27.956;2024-01-30T11:42:12;100957.00;;;3.99;100.00
18697;BME280;22617;43.690;27.956;2024-01-30T11:47:18;100946.22;;;5.96;100.00
18697;BME280;22617;43.690;27.956;2024-01-30T11:52:22;100935.66;;;6.30;100.00
18697;BME280;22617;43.690;27.956;2024-01-30T11:57:26;100939.97;;;4.85;100.00
18697;BME280;22617;43.690;27.956;2024-01-30T12:02:31;100932.16;;;4.50;100.00
18697;BME280;22617;43.690;27.956;2024-01-30T12:07:35;100933.63;;;4.45;100.00
18697;BME280;22617;43.690;27.956;2024-01-30T12:12:41;100930.00;;;4.25;100.00
18697;BME280;22617;43.690;27.956;2024-01-30T12:17:46;100932.50;;;3.91;100.00
18697;BME280;22617;43.690;27.956;2024-01-30T12:22:50;100918.63;;;3.89;100.00
18697;BME280;22617;43.690;27.956;2024-01-30T12:27:53;100930.41;;;4.16;100.00
18697;BME280;22617;43.690;27.956;2024-01-30T12:32:58;100930.72;;;4.22;100.00
18697;BME280;22617;43.690;27.956;2024-01-30T12:38:02;100930.88;;;4.09;100.00
18697;BME280;22617;43.690;27.956;2024-01-30T12:43:06;100918.63;;;4.05;100.00
18697;BME280;22617;43.690;27.956;2024-01-30T12:48:11;100914.91;;;4.00;100.00
18697;BME280;22617;43.690;27.956;2024-01-30T12:53:15;100911.59;;;4.19;100.00
18697;BME280;22617;43.690;27.956;2024-01-30T12:58:18;100910.16;;;4.24;100.00
18697;BME280;22617;43.690;27.956;2024-01-30T13:03:23;100925.31;;;4.02;100.00
18697;BME280;22617;43.690;27.956;2024-01-30T13:08:27;100919.09;;;3.98;100.00
18697;BME280;22617;43.690;27.956;2024-01-30T13:13:30;100907.03;;;3.97;100.00
18697;BME280;22617;43.690;27.956;2024-01-30T13:18:35;100921.44;;;3.77;100.00
18697;BME280;22617;43.690;27.956;2024-01-30T13:23:39;100922.66;;;4.00;100.00
18697;BME280;22617;43.690;27.956;2024-01-30T13:28:42;100909.44;;;4.10;100.00
18697;BME280;22617;43.690;27.956;2024-01-30T13:33:48;100910.75;;;4.02;100.00
18697;BME280;22617;43.690;27.956;2024-01-30T13:38:52;100911.13;;;3.93;100.00
18697;BME280;22617;43.690;27.956;2024-01-30T13:43:55;100927.06;;;3.70;100.00
18697;BME280;22617;43.690;27.956;2024-01-30T13:49:00;100928.53;;;3.81;100.00
18697;BME280;22617;43.690;27.956;2024-01-30T13:54:04;100929.88;;;3.75;100.00
18697;BME280;22617;43.690;27.956;2024-01-30T13:59:08;100917.09;;;3.76;100.00
18697;BME280;22617;43.690;27.956;2024-01-30T14:04:13;100928.13;;;3.43;100.00
18697;BME280;22617;43.690;27.956;2024-01-30T14:09:17;100924.44;;;3.23;100.00
18697;BME280;22617;43.690;27.956;2024-01-30T14:14:20;100916.72;;;3.23;100.00
18697;BME280;22617;43.690;27.956;2024-01-30T14:19:26;100916.53;;;3.35;100.00
18697;BME280;22617;43.690;27.956;2024-01-30T14:24:29;100910.84;;;3.40;100.00
18697;BME280;22617;43.690;27.956;2024-01-30T14:29:33;100913.44;;;3.26;100.00
18697;BME280;22617;43.690;27.956;2024-01-30T14:34:38;100920.84;;;3.05;100.00
18697;BME280;22617;43.690;27.956;2024-01-30T14:39:42;100927.34;;;2.84;100.00
18697;BME280;22617;43.690;27.956;2024-01-30T14:44:45;100920.97;;;2.77;100.00
18697;BME280;22617;43.690;27.956;2024-01-30T14:49:50;100923.28;;;2.87;100.00
18697;BME280;22617;43.690;27.956;2024-01-30T14:54:54;100930.09;;;2.57;100.00
18697;BME280;22617;43.690;27.956;2024-01-30T14:59:57;100933.81;;;2.33;100.00
18697;BME280;22617;43.690;27.956;2024-01-30T15:05:03;100935.09;;;2.27;100.00
18697;BME280;22617;43.690;27.956;2024-01-30T15:10:07;100937.19;;;2.04;100.00
18697;BME280;22617;43.690;27.956;2024-01-30T15:15:12;100932.63;;;1.86;100.00
18697;BME280;22617;43.690;27.956;2024-01-30T15:20:17;100940.94;;;1.82;100.00
18697;BME280;22617;43.690;27.956;2024-01-30T15:25:21;100941.13;;;1.85;100.00
18697;BME280;22617;43.690;27.956;2024-01-30T15:30:24;100945.94;;;1.93;100.00
18697;BME280;22617;43.690;27.956;2024-01-30T15:35:29;100942.94;;;2.00;100.00
18697;BME280;22617;43.690;27.956;2024-01-30T15:40:33;100948.28;;;2.03;100.00
18697;BME280;22617;43.690;27.956;2024-01-30T15:45:36;100945.88;;;2.06;100.00
18697;BME280;22617;43.690;27.956;2024-01-30T15:50:41;100954.72;;;1.97;100.00
18697;BME280;22617;43.690;27.956;2024-01-30T15:55:45;100956.16;;;1.79;100.00
18697;BME280;22617;43.690;27.956;2024-01-30T16:00:48;100960.81;;;1.71;100.00
18697;BME280;22617;43.690;27.956;2024-01-30T16:05:53;100953.00;;;1.69;100.00
18697;BME280;22617;43.690;27.956;2024-01-30T16:10:57;100963.22;;;1.55;100.00
18697;BME280;22617;43.690;27.956;2024-01-30T16:16:01;100959.31;;;1.34;100.00
18697;BME280;22617;43.690;27.956;2024-01-30T16:21:06;100954.06;;;1.32;100.00
18697;BME280;22617;43.690;27.956;2024-01-30T16:26:31;100957.91;;;1.25;100.00
18697;BME280;22617;43.690;27.956;2024-01-30T16:31:53;100968.06;;;1.11;100.00
18697;BME280;22617;43.690;27.956;2024-01-30T16:37:17;100977.66;;;1.13;100.00
18697;BME280;22617;43.690;27.956;2024-01-30T16:42:40;100966.63;;;1.14;100.00
18697;BME280;22617;43.690;27.956;2024-01-30T16:48:02;100967.41;;;1.13;100.00
18697;BME280;22617;43.690;27.956;2024-01-30T16:53:08;100970.63;;;1.11;100.00
18697;BME280;22617;43.690;27.956;2024-01-30T16:58:11;100973.31;;;0.86;100.00
18697;BME280;22617;43.690;27.956;2024-01-30T17:03:15;100976.13;;;0.77;100.00
18697;BME280;22617;43.690;27.956;2024-01-30T17:08:20;100968.34;;;0.76;100.00
18697;BME280;22617;43.690;27.956;2024-01-30T17:13:23;100969.53;;;0.81;100.00
18697;BME280;22617;43.690;27.956;2024-01-30T17:18:27;100972.19;;;0.82;100.00
18697;BME280;22617;43.690;27.956;2024-01-30T17:23:32;100972.50;;;0.87;100.00
18697;BME280;22617;43.690;27.956;2024-01-30T17:28:36;100978.31;;;0.84;100.00
18697;BME280;22617;43.690;27.956;2024-01-30T17:33:40;100969.13;;;0.75;100.00
18697;BME280;22617;43.690;27.956;2024-01-30T17:38:46;100984.22;;;0.70;100.00
18697;BME280;22617;43.690;27.956;2024-01-30T17:43:49;100978.78;;;0.66;100.00
18697;BME280;22617;43.690;27.956;2024-01-30T17:48:52;100993.47;;;0.68;100.00
18697;BME280;22617;43.690;27.956;2024-01-30T17:53:59;100996.63;;;0.64;100.00
18697;BME280;22617;43.690;27.956;2024-01-30T17:59:03;100986.03;;;0.47;100.00
18697;BME280;22617;43.690;27.956;2024-01-30T18:04:06;100984.94;;;0.43;100.00
18697;BME280;22617;43.690;27.956;2024-01-30T18:09:13;100983.97;;;0.54;100.00
18697;BME280;22617;43.690;27.956;2024-01-30T18:14:16;100974.78;;;0.58;100.00
18697;BME280;22617;43.690;27.956;2024-01-30T18:19:20;100968.50;;;0.28;100.00
18697;BME280;22617;43.690;27.956;2024-01-30T18:24:25;100966.09;;;0.18;100.00
18697;BME280;22617;43.690;27.956;2024-01-30T18:29:29;100962.91;;;0.33;100.00
18697;BME280;22617;43.690;27.956;2024-01-30T18:34:32;100972.31;;;0.21;100.00
18697;BME280;22617;43.690;27.956;2024-01-30T18:39:37;100967.47;;;0.13;100.00
18697;BME280;22617;43.690;27.956;2024-01-30T18:44:44;100972.59;;;0.13;100.00
18697;BME280;22617;43.690;27.956;2024-01-30T18:49:47;100968.44;;;0.15;100.00
18697;BME280;22617;43.690;27.956;2024-01-30T18:54:56;100967.78;;;0.17;100.00
18697;BME280;22617;43.690;27.956;2024-01-30T18:59:59;100963.94;;;-0.01;100.00
18697;BME280;22617;43.690;27.956;2024-01-30T19:05:05;100975.81;;;-0.15;100.00
18697;BME280;22617;43.690;27.956;2024-01-30T19:10:11;100960.81;;;0.03;100.00
18697;BME280;22617;43.690;27.956;2024-01-30T19:15:14;100965.31;;;-0.06;100.00
18697;BME280;22617;43.690;27.956;2024-01-30T19:20:18;100967.16;;;-0.04;100.00
18697;BME280;22617;43.690;27.956;2024-01-30T19:25:26;100963.19;;;-0.12;100.00
18697;BME280;22617;43.690;27.956;2024-01-30T19:30:32;100960.63;;;-0.12;100.00
18697;BME280;22617;43.690;27.956;2024-01-30T19:35:35;100963.63;;;-0.06;100.00
18697;BME280;22617;43.690;27.956;2024-01-30T19:40:40;100956.34;;;0.00;100.00
18697;BME280;22617;43.690;27.956;2024-01-30T19:45:44;100953.97;;;-0.21;100.00
18697;BME280;22617;43.690;27.956;2024-01-30T19:50:47;100951.34;;;-0.34;100.00
18697;BME280;22617;43.690;27.956;2024-01-30T19:55:52;100941.56;;;-0.40;100.00
18697;BME280;22617;43.690;27.956;2024-01-30T20:00:55;100948.66;;;-0.36;100.00
18697;BME280;22617;43.690;27.956;2024-01-30T20:06:00;100942.53;;;-0.38;100.00
18697;BME280;22617;43.690;27.956;2024-01-30T20:11:13;100940.69;;;-0.52;100.00
18697;BME280;22617;43.690;27.956;2024-01-30T20:16:17;100944.03;;;-0.53;100.00
18697;BME280;22617;43.690;27.956;2024-01-30T20:21:21;100942.06;;;-0.69;100.00
18697;BME280;22617;43.690;27.956;2024-01-30T20:26:27;100943.63;;;-0.82;100.00
18697;BME280;22617;43.690;27.956;2024-01-30T20:31:30;100945.28;;;-0.95;100.00
18697;BME280;22617;43.690;27.956;2024-01-30T20:36:34;100938.16;;;-0.75;100.00
18697;BME280;22617;43.690;27.956;2024-01-30T20:41:42;100938.38;;;-0.96;100.00
18697;BME280;22617;43.690;27.956;2024-01-30T20:46:47;100938.28;;;-0.97;100.00
18697;BME280;22617;43.690;27.956;2024-01-30T20:51:50;100936.28;;;-1.01;100.00
18697;BME280;22617;43.690;27.956;2024-01-30T20:56:55;100935.75;;;-0.97;100.00
18697;BME280;22617;43.690;27.956;2024-01-30T21:01:58;100937.19;;;-1.12;100.00
18697;BME280;22617;43.690;27.956;2024-01-30T21:07:02;100935.59;;;-1.34;100.00
18697;BME280;22617;43.690;27.956;2024-01-30T21:12:08;100938.03;;;-1.47;100.00
18697;BME280;22617;43.690;27.956;2024-01-30T21:17:11;100934.94;;;-1.31;100.00
18697;BME280;22617;43.690;27.956;2024-01-30T21:22:15;100933.59;;;-1.14;100.00
18697;BME280;22617;43.690;27.956;2024-01-30T21:27:20;100935.63;;;-1.22;100.00
18697;BME280;22617;43.690;27.956;2024-01-30T21:32:23;100936.38;;;-1.35;100.00
18697;BME280;22617;43.690;27.956;2024-01-30T21:37:26;100932.84;;;-1.13;100.00
18697;BME280;22617;43.690;27.956;2024-01-30T21:42:31;100920.94;;;-1.01;100.00
18697;BME280;22617;43.690;27.956;2024-01-30T21:47:35;100925.59;;;-1.07;100.00
18697;BME280;22617;43.690;27.956;2024-01-30T21:52:38;100924.50;;;-1.11;100.00
18697;BME280;22617;43.690;27.956;2024-01-30T21:57:43;100925.28;;;-1.12;100.00
18697;BME280;22617;43.690;27.956;2024-01-30T22:02:47;100922.13;;;-1.19;100.00
18697;BME280;22617;43.690;27.956;2024-01-30T22:07:50;100917.78;;;-1.44;100.00
18697;BME280;22617;43.690;27.956;2024-01-30T22:12:55;100905.56;;;-1.48;100.00
18697;BME280;22617;43.690;27.956;2024-01-30T22:17:59;100910.66;;;-1.48;100.00
18697;BME280;22617;43.690;27.956;2024-01-30T22:23:03;100896.22;;;-1.47;100.00
18697;BME280;22617;43.690;27.956;2024-01-30T22:28:08;100898.44;;;-1.63;100.00
18697;BME280;22617;43.690;27.956;2024-01-30T22:33:12;100896.56;;;-1.54;100.00
18697;BME280;22617;43.690;27.956;2024-01-30T22:38:15;100896.22;;;-1.59;100.00
18697;BME280;22617;43.690;27.956;2024-01-30T22:43:22;100891.53;;;-1.53;100.00
18697;BME280;22617;43.690;27.956;2024-01-30T22:48:26;100894.59;;;-1.80;100.00
18697;BME280;22617;43.690;27.956;2024-01-30T22:53:30;100884.03;;;-1.85;100.00
18697;BME280;22617;43.690;27.956;2024-01-30T22:58:36;100884.72;;;-1.87;100.00
18697;BME280;22617;43.690;27.956;2024-01-30T23:03:40;100881.00;;;-2.02;100.00
18697;BME280;22617;43.690;27.956;2024-01-30T23:08:43;100876.31;;;-2.08;100.00
18697;BME280;22617;43.690;27.956;2024-01-30T23:13:48;100877.75;;;-2.11;100.00
18697;BME280;22617;43.690;27.956;2024-01-30T23:18:52;100876.66;;;-2.03;100.00
18697;BME280;22617;43.690;27.956;2024-01-30T23:23:56;100868.78;;;-2.06;100.00
18697;BME280;22617;43.690;27.956;2024-01-30T23:29:01;100863.81;;;-1.93;100.00
18697;BME280;22617;43.690;27.956;2024-01-30T23:34:05;100864.28;;;-1.76;100.00
18697;BME280;22617;43.690;27.956;2024-01-30T23:39:09;100858.63;;;-1.71;100.00
18697;BME280;22617;43.690;27.956;2024-01-30T23:44:15;100858.22;;;-1.54;100.00
18697;BME280;22617;43.690;27.956;2024-01-30T23:49:18;100851.09;;;-1.47;100.00
18697;BME280;22617;43.690;27.956;2024-01-30T23:54:22;100850.88;;;-1.50;100.00
18697;BME280;22617;43.690;27.956;2024-01-30T23:59:27;100854.75;;;-1.43;100.00
